createdAt,value
2022-12-14T00:01:21.775Z,98758.16
2022-12-14T00:03:49.235Z,98769.38
2022-12-14T00:06:29.995Z,98754.81
2022-12-14T00:08:58.279Z,98744.44
2022-12-14T00:11:25.735Z,98761.47
2022-12-14T00:14:00.108Z,98771.91
2022-12-14T00:16:28.925Z,98746.91
2022-12-14T00:18:56.957Z,98774.09
2022-12-14T00:21:24.066Z,98769.63
2022-12-14T00:23:51.354Z,98749.25
2022-12-14T00:26:20.243Z,98742.47
2022-12-14T00:28:47.576Z,98779.06
2022-12-14T00:31:14.672Z,98762.03
2022-12-14T00:33:41.674Z,98755.22
2022-12-14T00:36:09.650Z,98766.31
2022-12-14T00:38:36.844Z,98759.53
2022-12-14T00:41:04.835Z,98730.06
2022-12-14T00:43:32.410Z,98762.81
2022-12-14T00:45:59.399Z,98750.81
2022-12-14T00:48:26.858Z,98769.50
2022-12-14T00:50:54.963Z,98717.31
2022-12-14T00:53:22.234Z,98731.00
2022-12-14T00:55:49.936Z,98740.38
2022-12-14T00:58:18.743Z,98740.56
2022-12-14T01:00:45.794Z,98744.78
2022-12-14T01:03:12.794Z,98721.44
2022-12-14T01:05:39.877Z,98711.97
2022-12-14T01:08:07.151Z,98749.69
2022-12-14T01:10:34.242Z,98718.94
2022-12-14T01:13:01.182Z,98749.75
2022-12-14T01:15:28.162Z,98732.38
2022-12-14T01:17:55.054Z,98751.22
2022-12-14T01:20:22.013Z,98756.34
2022-12-14T01:22:53.706Z,98763.91
2022-12-14T01:25:21.073Z,98733.69
2022-12-14T01:27:47.981Z,98752.66
2022-12-14T01:30:14.991Z,98729.81
2022-12-14T01:32:41.887Z,98741.03
2022-12-14T01:35:09.290Z,98725.66
2022-12-14T01:37:36.192Z,98716.81
2022-12-14T01:40:03.677Z,98714.63
2022-12-14T01:42:30.597Z,98712.22
2022-12-14T01:44:58.210Z,98708.47
2022-12-14T01:47:40.272Z,98726.28
2022-12-14T01:50:27.492Z,98763.72
2022-12-14T01:52:57.050Z,98726.41
2022-12-14T01:55:29.433Z,98705.00
2022-12-14T01:58:09.458Z,98724.13
2022-12-14T02:00:36.823Z,98711.97
2022-12-14T02:03:09.867Z,98705.38
2022-12-14T02:05:39.496Z,98722.59
2022-12-14T02:08:06.514Z,98723.44
2022-12-14T02:10:33.542Z,98709.84
2022-12-14T02:13:23.401Z,98691.63
2022-12-14T02:15:51.273Z,98699.41
2022-12-14T02:18:22.965Z,98718.25
2022-12-14T02:21:14.878Z,98725.03
2022-12-14T02:24:19.431Z,98714.91
2022-12-14T02:26:58.194Z,98714.38
2022-12-14T02:29:43.299Z,98699.53
2022-12-14T02:32:23.209Z,98647.00
2022-12-14T02:35:12.814Z,98676.81
2022-12-14T02:37:42.714Z,98684.72
2022-12-14T02:40:58.989Z,98695.56
2022-12-14T02:43:40.068Z,98654.78
2022-12-14T02:46:47.374Z,98668.06
2022-12-14T02:49:37.007Z,98676.41
2022-12-14T02:52:12.955Z,98680.75
2022-12-14T02:54:48.118Z,98674.72
2022-12-14T02:57:21.390Z,98673.31
2022-12-14T02:59:49.944Z,98656.56
2022-12-14T03:02:16.912Z,98625.69
2022-12-14T03:04:51.245Z,98628.38
2022-12-14T03:07:33.913Z,98656.66
2022-12-14T03:10:05.293Z,98618.28
2022-12-14T03:12:32.362Z,98646.69
2022-12-14T03:14:59.499Z,98614.03
2022-12-14T03:17:28.071Z,98635.69
2022-12-14T03:20:14.486Z,98650.97
2022-12-14T03:23:03.704Z,98634.75
2022-12-14T03:25:34.817Z,98609.00
2022-12-14T03:28:32.319Z,98656.91
2022-12-14T03:31:06.137Z,98610.69
2022-12-14T03:33:33.182Z,98667.94
2022-12-14T03:36:24.845Z,98648.50
2022-12-14T03:38:53.989Z,98626.34
2022-12-14T03:41:39.569Z,98646.22
2022-12-14T03:44:24.452Z,98654.69
2022-12-14T03:47:13.958Z,98640.25
2022-12-14T03:50:00.600Z,98623.16
2022-12-14T03:52:40.158Z,98611.44
2022-12-14T03:55:32.022Z,98632.94
2022-12-14T03:58:04.935Z,98602.09
2022-12-14T04:00:32.515Z,98637.22
2022-12-14T04:03:10.402Z,98596.25
2022-12-14T04:05:49.171Z,98610.03
2022-12-14T04:08:31.421Z,98628.28
2022-12-14T04:11:17.165Z,98600.16
2022-12-14T04:14:05.775Z,98620.91
2022-12-14T04:16:55.220Z,98603.19
2022-12-14T04:19:29.588Z,98598.38
2022-12-14T04:21:59.051Z,98559.97
2022-12-14T04:24:52.579Z,98561.88
2022-12-14T04:27:53.456Z,98548.22
2022-12-14T04:30:20.362Z,98587.63
2022-12-14T04:33:01.124Z,98579.47
2022-12-14T04:35:40.013Z,98561.59
2022-12-14T04:38:10.431Z,98550.69
2022-12-14T04:40:43.843Z,98554.41
2022-12-14T04:43:15.296Z,98549.31
2022-12-14T04:46:06.640Z,98557.19
2022-12-14T04:48:51.996Z,98553.09
2022-12-14T04:51:38.752Z,98533.47
2022-12-14T04:54:19.399Z,98553.19
2022-12-14T04:57:07.696Z,98500.53
2022-12-14T04:59:34.633Z,98508.13
2022-12-14T05:02:19.719Z,98531.47
2022-12-14T05:05:25.220Z,98540.94
2022-12-14T05:07:55.187Z,98534.38
2022-12-14T05:10:39.188Z,98507.13
2022-12-14T05:13:10.566Z,98534.88
2022-12-14T05:15:51.601Z,98518.41
2022-12-14T05:18:18.519Z,98519.38
2022-12-14T05:20:46.889Z,98471.84
2022-12-14T05:23:13.972Z,98473.03
2022-12-14T05:25:40.927Z,98459.53
2022-12-14T05:28:07.977Z,98468.22
2022-12-14T05:30:35.105Z,98481.91
2022-12-14T05:33:02.083Z,98476.09
2022-12-14T05:35:28.962Z,98453.47
2022-12-14T05:37:56.103Z,98461.25
2022-12-14T05:40:22.964Z,98465.91
2022-12-14T05:42:55.468Z,98447.97
2022-12-14T05:45:22.938Z,98438.56
2022-12-14T05:47:49.804Z,98462.81
2022-12-14T05:50:16.773Z,98422.75
2022-12-14T05:52:43.710Z,98424.59
2022-12-14T05:55:10.729Z,98447.00
2022-12-14T05:57:37.622Z,98446.06
2022-12-14T06:00:05.322Z,98431.66
2022-12-14T06:02:32.618Z,98445.34
2022-12-14T06:04:59.570Z,98430.97
2022-12-14T06:07:28.285Z,98446.41
2022-12-14T06:09:55.404Z,98441.41
2022-12-14T06:12:22.388Z,98425.25
2022-12-14T06:14:49.407Z,98425.16
2022-12-14T06:17:16.332Z,98421.88
2022-12-14T06:19:43.385Z,98435.69
2022-12-14T06:22:16.867Z,98410.97
2022-12-14T06:24:43.759Z,98445.25
2022-12-14T06:27:10.674Z,98407.00
2022-12-14T06:29:37.561Z,98421.59
2022-12-14T06:32:04.795Z,98398.56
2022-12-14T06:34:35.348Z,98441.38
2022-12-14T06:37:06.497Z,98415.78
2022-12-14T06:39:33.381Z,98415.00
2022-12-14T06:42:00.336Z,98442.22
2022-12-14T06:44:27.496Z,98445.00
2022-12-14T06:46:54.631Z,98437.41
2022-12-14T06:49:22.034Z,98407.53
2022-12-14T06:51:49.082Z,98442.56
2022-12-14T06:54:16.275Z,98454.47
2022-12-14T06:56:44.387Z,98431.66
2022-12-14T06:59:11.613Z,98442.88
2022-12-14T07:01:39.015Z,98443.72
2022-12-14T07:04:06.352Z,98439.53
2022-12-14T07:06:38.165Z,98410.75
2022-12-14T07:09:05.755Z,98422.63
2022-12-14T07:11:33.414Z,98434.50
2022-12-14T07:14:07.437Z,98426.06
2022-12-14T07:16:35.036Z,98428.84
2022-12-14T07:19:02.008Z,98392.50
2022-12-14T07:21:29.540Z,98369.41
2022-12-14T07:23:56.595Z,98399.41
2022-12-14T07:26:25.303Z,98378.16
2022-12-14T07:28:52.482Z,98386.84
2022-12-14T07:31:24.590Z,98358.06
2022-12-14T07:33:56.020Z,98358.09
2022-12-14T07:36:23.828Z,98380.41
2022-12-14T07:38:50.991Z,98347.22
2022-12-14T07:41:22.673Z,98377.25
2022-12-14T07:43:55.063Z,98372.13
2022-12-14T07:46:23.927Z,98391.47
2022-12-14T07:48:54.940Z,98397.50
2022-12-14T07:51:23.578Z,98365.22
2022-12-14T07:53:50.862Z,98394.13
2022-12-14T07:56:28.360Z,98383.13
2022-12-14T07:58:55.961Z,98421.41
2022-12-14T08:01:27.659Z,98378.06
2022-12-14T08:03:59.373Z,98412.19
2022-12-14T08:06:27.870Z,98405.41
2022-12-14T08:08:55.700Z,98361.19
2022-12-14T08:11:22.965Z,98421.72
2022-12-14T08:14:17.175Z,98406.47
2022-12-14T08:16:44.939Z,98408.13
2022-12-14T08:19:12.304Z,98396.34
2022-12-14T08:21:40.081Z,98391.44
2022-12-14T08:24:07.174Z,98376.22
2022-12-14T08:26:36.010Z,98395.06
2022-12-14T08:29:03.858Z,98393.47
2022-12-14T08:31:31.023Z,98383.28
2022-12-14T08:34:01.369Z,98389.16
2022-12-14T08:36:30.315Z,98375.47
2022-12-14T08:38:58.579Z,98379.84
2022-12-14T08:41:25.941Z,98384.91
2022-12-14T08:43:54.581Z,98383.25
2022-12-14T08:46:21.926Z,98408.81
2022-12-14T08:48:50.591Z,98396.97
2022-12-14T08:51:17.715Z,98384.28
2022-12-14T08:53:44.686Z,98365.59
2022-12-14T08:56:12.923Z,98345.38
2022-12-14T08:58:40.471Z,98378.63
2022-12-14T09:01:09.614Z,98384.63
2022-12-14T09:03:36.643Z,98403.25
2022-12-14T09:06:04.658Z,98387.94
2022-12-14T09:08:32.887Z,98373.75
2022-12-14T09:11:00.376Z,98375.44
2022-12-14T09:13:27.930Z,98363.66
2022-12-14T09:16:00.391Z,98362.81
2022-12-14T09:18:28.146Z,98380.09
2022-12-14T09:20:56.052Z,98343.63
2022-12-14T09:23:27.327Z,98361.53
2022-12-14T09:26:04.356Z,98356.66
2022-12-14T09:28:31.986Z,98347.19
2022-12-14T09:31:00.175Z,98337.78
2022-12-14T09:33:28.084Z,98349.75
2022-12-14T09:36:03.398Z,98361.75
2022-12-14T09:38:32.180Z,98341.31
2022-12-14T09:41:01.142Z,98341.22
2022-12-14T09:43:40.663Z,98370.38
2022-12-14T09:46:41.589Z,98365.38
2022-12-14T09:49:21.090Z,98341.50
2022-12-14T09:51:48.035Z,98358.59
2022-12-14T09:54:15.724Z,98309.94
2022-12-14T09:56:45.719Z,98328.00
2022-12-14T09:59:15.676Z,98336.44
2022-12-14T10:02:14.071Z,98365.47
2022-12-14T10:04:47.651Z,98331.34
2022-12-14T10:07:21.104Z,98341.69
2022-12-14T10:10:05.371Z,98347.81
2022-12-14T10:13:00.102Z,98344.53
2022-12-14T10:15:40.545Z,98353.09
2022-12-14T10:21:23.194Z,98307.28
2022-12-14T10:23:56.797Z,98306.53
2022-12-14T10:26:23.922Z,98340.34
2022-12-14T10:28:59.389Z,98301.63
2022-12-14T10:31:47.196Z,98311.25
2022-12-14T10:34:19.044Z,98259.47
2022-12-14T10:37:09.369Z,98295.41
2022-12-14T10:40:17.476Z,98292.13
2022-12-14T10:42:55.246Z,98290.47
2022-12-14T10:45:40.267Z,98274.25
2022-12-14T10:48:27.423Z,98291.22
2022-12-14T10:51:00.530Z,98282.13
2022-12-14T10:53:48.192Z,98224.22
2022-12-14T10:56:21.093Z,98275.50
2022-12-14T10:59:16.873Z,98262.88
2022-12-14T11:01:44.977Z,98247.66
2022-12-14T11:04:30.650Z,98246.91
2022-12-14T11:07:02.769Z,98217.28
2022-12-14T11:09:29.929Z,98239.38
2022-12-14T11:12:04.681Z,98202.88
2022-12-14T11:14:31.859Z,98229.38
2022-12-14T11:16:58.933Z,98207.38
2022-12-14T11:19:26.689Z,98194.69
2022-12-14T11:22:21.705Z,98211.00
2022-12-14T11:24:49.564Z,98212.72
2022-12-14T11:27:21.142Z,98166.09
2022-12-14T11:29:49.409Z,98171.28
2022-12-14T11:32:21.225Z,98173.19
2022-12-14T11:34:53.972Z,98171.56
2022-12-14T11:37:44.333Z,98168.31
2022-12-14T11:40:23.485Z,98146.97
2022-12-14T11:42:50.633Z,98129.25
2022-12-14T11:45:26.648Z,98158.13
2022-12-14T11:48:15.385Z,98166.69
2022-12-14T11:50:42.917Z,98138.69
2022-12-14T11:53:14.824Z,98130.97
2022-12-14T11:55:50.961Z,98149.00
2022-12-14T11:58:20.756Z,98150.72
2022-12-14T12:00:50.168Z,98152.34
2022-12-14T12:03:25.734Z,98115.19
2022-12-14T12:05:53.074Z,98133.03
2022-12-14T12:08:31.072Z,98127.25
2022-12-14T12:11:02.799Z,98108.63
2022-12-14T12:13:37.431Z,98116.22
2022-12-14T12:16:10.420Z,98103.53
2022-12-14T12:19:00.749Z,98105.31
2022-12-14T12:21:35.859Z,98105.06
2022-12-14T12:24:27.238Z,98122.13
2022-12-14T12:26:58.965Z,98086.59
2022-12-14T12:29:32.256Z,98107.91
2022-12-14T12:32:20.563Z,98106.94
2022-12-14T12:35:04.129Z,98086.59
2022-12-14T12:38:02.805Z,98091.91
2022-12-14T12:40:33.216Z,98051.19
2022-12-14T12:43:16.241Z,98069.97
2022-12-14T12:45:48.804Z,98074.28
2022-12-14T12:48:54.132Z,98071.78
2022-12-14T12:51:24.200Z,98062.38
2022-12-14T12:54:19.693Z,98065.75
2022-12-14T12:56:48.624Z,98076.84
2022-12-14T12:59:20.744Z,98047.28
2022-12-14T13:01:53.252Z,98042.22
2022-12-14T13:04:40.691Z,98055.88
2022-12-14T13:07:29.834Z,98033.84
2022-12-14T13:10:18.238Z,98033.94
2022-12-14T13:13:30.042Z,98042.34
2022-12-14T13:15:59.523Z,98027.19
2022-12-14T13:18:57.847Z,98014.69
2022-12-14T13:21:39.135Z,97984.97
2022-12-14T13:24:06.952Z,97987.50
2022-12-14T13:26:57.800Z,97994.50
2022-12-14T13:29:34.903Z,97985.09
2022-12-14T13:32:26.464Z,97991.91
2022-12-14T13:35:31.062Z,97986.88
2022-12-14T13:38:36.189Z,97996.94
2022-12-14T13:41:09.617Z,97991.09
2022-12-14T13:43:57.866Z,97985.19
2022-12-14T13:46:25.983Z,97991.13
2022-12-14T13:48:59.083Z,97979.41
2022-12-14T13:51:34.666Z,97976.88
2022-12-14T13:54:03.348Z,97969.34
2022-12-14T13:56:33.626Z,97955.03
2022-12-14T13:59:02.173Z,97936.38
2022-12-14T14:01:47.297Z,97968.56
2022-12-14T14:04:21.613Z,97952.56
2022-12-14T14:06:49.854Z,97930.53
2022-12-14T14:09:29.009Z,97948.25
2022-12-14T14:12:02.455Z,97937.41
2022-12-14T14:14:48.461Z,97916.19
2022-12-14T14:17:25.706Z,97943.34
2022-12-14T14:19:53.657Z,97897.56
2022-12-14T14:22:25.956Z,97927.34
2022-12-14T14:25:00.962Z,97887.66
2022-12-14T14:27:50.354Z,97886.84
2022-12-14T14:30:25.770Z,97904.59
2022-12-14T14:33:19.941Z,97885.88
2022-12-14T14:35:43.101Z,97870.63
2022-12-14T14:38:27.949Z,97901.31
2022-12-14T14:41:21.043Z,97891.16
2022-12-14T14:43:54.009Z,97844.63
2022-12-14T14:46:23.394Z,97870.06
2022-12-14T14:48:54.481Z,97866.75
2022-12-14T14:51:23.839Z,97865.94
2022-12-14T14:54:53.965Z,97862.59
2022-12-14T14:57:34.350Z,97862.56
2022-12-14T15:00:01.694Z,97832.13
2022-12-14T15:02:33.430Z,97843.22
2022-12-14T15:05:24.836Z,97805.88
2022-12-14T15:07:47.503Z,97814.41
2022-12-14T15:10:32.569Z,97839.03
2022-12-14T15:13:04.328Z,97803.50
2022-12-14T15:15:44.777Z,97851.75
2022-12-14T15:18:27.912Z,97856.00
2022-12-14T15:20:56.656Z,97850.06
2022-12-14T15:23:23.725Z,97850.88
2022-12-14T15:25:58.469Z,97839.84
2022-12-14T15:28:25.597Z,97835.56
2022-12-14T15:30:55.109Z,97845.81
2022-12-14T15:33:31.054Z,97840.63
2022-12-14T15:36:05.431Z,97862.72
2022-12-14T15:38:33.846Z,97826.25
2022-12-14T15:41:06.139Z,97840.66
2022-12-14T15:43:36.594Z,97828.78
2022-12-14T15:46:16.309Z,97813.56
2022-12-14T15:48:58.915Z,97816.94
2022-12-14T15:51:37.629Z,97829.75
2022-12-14T15:54:05.983Z,97806.09
2022-12-14T15:56:37.187Z,97842.53
2022-12-14T15:59:07.566Z,97829.84
2022-12-14T16:01:37.897Z,97789.94
2022-12-14T16:04:07.673Z,97814.66
2022-12-14T16:06:37.727Z,97833.28
2022-12-14T16:09:29.579Z,97860.31
2022-12-14T16:11:59.967Z,97822.06
2022-12-14T16:14:36.702Z,97878.78
2022-12-14T16:17:05.082Z,97904.06
2022-12-14T16:19:57.528Z,97904.88
2022-12-14T16:22:28.907Z,97919.28
2022-12-14T16:25:07.996Z,97903.31
2022-12-14T16:27:39.399Z,97865.13
2022-12-14T16:30:43.046Z,97911.88
2022-12-14T16:33:18.194Z,97913.47
2022-12-14T16:35:47.402Z,97888.13
2022-12-14T16:38:15.633Z,97890.00
2022-12-14T16:41:02.976Z,97882.38
2022-12-14T16:43:40.553Z,97874.66
2022-12-14T16:46:10.288Z,97878.91
2022-12-14T16:48:50.021Z,97901.78
2022-12-14T16:51:37.849Z,97914.44
2022-12-14T16:54:30.420Z,97908.47
2022-12-14T16:57:01.985Z,97910.97
2022-12-14T16:59:35.817Z,97899.19
2022-12-14T17:02:03.101Z,97889.00
2022-12-14T17:04:35.684Z,97893.25
2022-12-14T17:07:02.681Z,97880.56
2022-12-14T17:09:30.647Z,97906.06
2022-12-14T17:12:02.064Z,97862.03
2022-12-14T17:14:29.139Z,97867.09
2022-12-14T17:17:00.362Z,97897.59
2022-12-14T17:19:31.044Z,97868.75
2022-12-14T17:21:58.252Z,97883.97
2022-12-14T17:24:25.231Z,97889.94
2022-12-14T17:26:52.337Z,97892.44
2022-12-14T17:29:24.455Z,97891.66
2022-12-14T17:31:52.756Z,97878.03
2022-12-14T17:34:19.664Z,97878.94
2022-12-14T17:36:46.684Z,97879.75
2022-12-14T17:39:13.712Z,97911.09
2022-12-14T17:41:42.662Z,97863.63
2022-12-14T17:44:16.834Z,97886.56
2022-12-14T17:46:44.399Z,97849.22
2022-12-14T17:49:12.922Z,97870.50
2022-12-14T17:51:42.257Z,97848.47
2022-12-14T17:54:16.906Z,97857.03
2022-12-14T17:56:44.324Z,97862.97
2022-12-14T17:59:11.370Z,97873.13
2022-12-14T18:01:38.485Z,97880.72
2022-12-14T18:04:05.847Z,97840.91
2022-12-14T18:06:32.850Z,97852.75
2022-12-14T18:08:59.726Z,97848.63
2022-12-14T18:11:29.749Z,97847.69
2022-12-14T18:13:56.713Z,97835.84
2022-12-14T18:16:24.169Z,97845.94
2022-12-14T18:18:54.166Z,97852.66
2022-12-14T18:21:26.184Z,97850.88
2022-12-14T18:23:53.378Z,97843.25
2022-12-14T18:26:21.326Z,97851.72
2022-12-14T18:28:51.857Z,97816.13
2022-12-14T18:31:31.831Z,97800.06
2022-12-14T18:34:19.467Z,97819.56
2022-12-14T18:36:58.877Z,97817.09
2022-12-14T18:39:29.561Z,97812.00
2022-12-14T18:41:56.714Z,97803.47
2022-12-14T18:44:23.772Z,97779.75
2022-12-14T18:46:50.864Z,97788.97
2022-12-14T18:49:21.655Z,97827.16
2022-12-14T18:51:48.839Z,97784.06
2022-12-14T18:54:16.018Z,97767.13
2022-12-14T18:56:46.024Z,97799.31
2022-12-14T18:59:17.407Z,97754.41
2022-12-14T19:01:47.043Z,97758.63
2022-12-14T19:04:17.032Z,97750.91
2022-12-14T19:06:48.850Z,97771.28
2022-12-14T19:09:16.410Z,97799.25
2022-12-14T19:11:57.086Z,97757.75
2022-12-14T19:14:24.846Z,97806.06
2022-12-14T19:17:03.693Z,97762.69
2022-12-14T19:19:36.733Z,97808.56
2022-12-14T19:22:06.672Z,97780.63
2022-12-14T19:24:33.664Z,97800.91
2022-12-14T19:27:00.778Z,97791.63
2022-12-14T19:29:27.763Z,97806.91
2022-12-14T19:31:57.016Z,97812.03
2022-12-14T19:34:26.074Z,97818.75
2022-12-14T19:36:53.152Z,97777.28
2022-12-14T19:39:20.279Z,97775.69
2022-12-14T19:41:50.192Z,97774.00
2022-12-14T19:44:17.571Z,97801.22
2022-12-14T19:46:44.540Z,97790.13
2022-12-14T19:49:13.650Z,97809.56
2022-12-14T19:51:41.550Z,97819.75
2022-12-14T19:54:08.602Z,97819.72
2022-12-14T19:56:35.576Z,97818.06
2022-12-14T19:59:03.749Z,97821.41
2022-12-14T20:01:38.900Z,97850.22
2022-12-14T20:04:09.014Z,97807.88
2022-12-14T20:06:35.997Z,97849.44
2022-12-14T20:09:04.657Z,97844.34
2022-12-14T20:11:31.601Z,97819.69
2022-12-14T20:14:02.906Z,97838.38
2022-12-14T20:16:30.420Z,97854.47
2022-12-14T20:18:57.587Z,97876.47
2022-12-14T20:21:24.685Z,97860.38
2022-12-14T20:23:51.880Z,97856.13
2022-12-14T20:26:21.523Z,97871.44
2022-12-14T20:28:53.292Z,97830.78
2022-12-14T20:31:20.583Z,97862.13
2022-12-14T20:33:47.579Z,97836.69
2022-12-14T20:36:14.686Z,97846.94
2022-12-14T20:38:41.589Z,97844.47
2022-12-14T20:41:13.594Z,97824.94
2022-12-14T20:43:44.338Z,97850.31
2022-12-14T20:46:34.319Z,97868.06
2022-12-14T20:49:07.466Z,97861.28
2022-12-14T20:51:36.033Z,97828.28
2022-12-14T20:54:03.421Z,97827.59
2022-12-14T20:56:30.459Z,97828.31
2022-12-14T20:58:57.537Z,97864.78
2022-12-14T21:01:24.658Z,97859.72
2022-12-14T21:03:51.832Z,97819.97
2022-12-14T21:06:21.536Z,97835.25
2022-12-14T21:09:09.827Z,97837.81
2022-12-14T21:12:02.373Z,97825.84
2022-12-14T21:14:31.387Z,97836.00
2022-12-14T21:16:58.733Z,97844.50
2022-12-14T21:19:25.893Z,97836.88
2022-12-14T21:21:54.020Z,97815.66
2022-12-14T21:24:52.653Z,97857.22
2022-12-14T21:27:09.816Z,97831.81
2022-12-14T21:29:36.851Z,97808.06
2022-12-14T21:32:04.478Z,97853.88
2022-12-14T21:34:32.118Z,97818.28
2022-12-14T21:36:59.571Z,97830.16
2022-12-14T21:39:26.571Z,97851.31
2022-12-14T21:42:13.273Z,97860.66
2022-12-14T21:44:44.342Z,97828.38
2022-12-14T21:47:13.651Z,97855.47
2022-12-14T21:49:41.075Z,97856.31
2022-12-14T21:52:09.136Z,97850.41
2022-12-14T21:54:36.173Z,97844.47
2022-12-14T21:57:21.739Z,97861.44
2022-12-14T21:59:48.704Z,97852.91
2022-12-14T22:02:20.715Z,97875.84
2022-12-14T22:04:47.948Z,97833.47
2022-12-14T22:07:19.457Z,97865.72
2022-12-14T22:09:49.583Z,97846.16
2022-12-14T22:12:17.623Z,97825.81
2022-12-14T22:14:44.525Z,97840.22
2022-12-14T22:17:11.844Z,97878.41
2022-12-14T22:19:38.807Z,97882.59
2022-12-14T22:22:05.786Z,97866.56
2022-12-14T22:24:32.854Z,97859.75
2022-12-14T22:26:59.895Z,97832.69
2022-12-14T22:29:26.822Z,97842.94
2022-12-14T22:31:53.855Z,97792.94
2022-12-14T22:34:22.905Z,97805.66
2022-12-14T22:36:50.798Z,97822.69
2022-12-14T22:39:17.896Z,97826.06
2022-12-14T22:41:45.052Z,97819.28
2022-12-14T22:44:12.849Z,97844.63
2022-12-14T22:46:40.224Z,97855.59
2022-12-14T22:49:07.372Z,97832.66
2022-12-14T22:51:34.324Z,97848.78
2022-12-14T22:54:01.310Z,97859.81
2022-12-14T22:56:36.020Z,97835.25
2022-12-14T22:59:25.339Z,97836.03
2022-12-14T23:01:52.813Z,97853.00
2022-12-14T23:04:21.131Z,97833.63
2022-12-14T23:06:48.140Z,97825.13
2022-12-14T23:09:33.671Z,97856.47
2022-12-14T23:12:21.849Z,97847.91
2022-12-14T23:15:08.564Z,97828.47
2022-12-14T23:17:54.611Z,97844.53
2022-12-14T23:20:40.183Z,97832.69
2022-12-14T23:23:26.679Z,97863.19
2022-12-14T23:26:12.143Z,97875.84
2022-12-14T23:28:57.804Z,97869.91
2022-12-14T23:31:43.553Z,97876.69
2022-12-14T23:34:28.935Z,97858.94
2022-12-14T23:37:19.777Z,97883.41
2022-12-14T23:40:06.342Z,97902.84
2022-12-14T23:42:51.756Z,97892.66
2022-12-14T23:45:37.029Z,97873.22
2022-12-14T23:48:22.539Z,97890.16
2022-12-14T23:51:07.950Z,97866.44
2022-12-14T23:53:53.502Z,97863.91
2022-12-14T23:56:38.711Z,97895.22
2022-12-14T23:59:29.789Z,97890.91
